Terminal Aerodrome Forecast
Issued by NWS

Home | Current Version | Previous Version | Graphics & Text | Print | Product List | Glossary On
Versions: 1 2 3 4 5 6 7 8 9 10 11 12 13 14 15 16
000
FTUS43 KICT 100600 AAA
TAFRSL
TAF AMD
KRSL 100651Z 1007/1106 14011KT 6SM -TSRA SCT060CB OVC100
      TEMPO 1007/1010 VRB15G30KT 2SM +TSRA BKN030CB
     FM101000 16015G22KT P6SM SCT100 BKN150
     FM101600 17021G30KT P6SM SCT200
     FM110200 17016G23KT P6SM SKC=

USA.gov is the U.S. government's official web portal to all federal, state and local government web resources and services.